Time;durP1;ratioP1;P1;durP2;ratioP2;P2;SDS_P1;SDS_P2;PMS_P1;PMS_P2;Temp;Humidity;BMP_temperature;BMP_pressure;BME280_temperature;BME280_humidity;BME280_pressure;Samples;Min_cycle;Max_cycle;Signal;HPM_P1;HPM_P2
2022/01/04 00:00:44;;;;;;;10.40;7.00;;;;;;;10.10;nan;-24099.13;5053844;28;20262;-65
2022/01/04 00:03:10;;;;;;;11.38;6.78;;;;;;;9.61;nan;-24085.44;5054304;28;20175;-65
2022/01/04 00:05:37;;;;;;;9.27;6.32;;;;;;;9.62;nan;-24085.84;5053895;28;20563;-65
2022/01/04 00:08:07;;;;;;;10.02;6.65;;;;;;;9.51;nan;-24082.59;5053745;28;20322;-65
2022/01/04 00:10:33;;;;;;;10.95;6.63;;;;;;;9.61;nan;-24085.56;5053853;28;20166;-65
2022/01/04 00:15:44;;;;;;;9.50;6.30;;;;;;;9.47;nan;-24081.63;5053574;28;20166;-65
2022/01/04 00:18:10;;;;;;;9.77;6.72;;;;;;;9.22;nan;-24074.69;5053699;28;20728;-65
2022/01/04 00:20:35;;;;;;;9.57;6.87;;;;;;;9.78;nan;-24090.25;5053217;28;20171;-65
2022/01/04 00:23:01;;;;;;;10.03;6.47;;;;;;;9.87;nan;-24092.78;5053499;28;20297;-66
2022/01/04 00:25:26;;;;;;;9.82;6.57;;;;;;;9.52;nan;-24082.91;5053672;28;20713;-65
2022/01/04 00:27:52;;;;;;;11.13;6.27;;;;;;;9.66;nan;-24086.84;5052289;28;20174;-65
2022/01/04 00:30:17;;;;;;;9.57;6.25;;;;;;;9.29;nan;-24076.53;5052609;28;20175;-65
2022/01/04 00:32:43;;;;;;;9.17;6.33;;;;;;;9.43;nan;-24080.50;5053150;28;20541;-65
2022/01/04 00:35:09;;;;;;;9.37;6.27;;;;;;;9.61;nan;-24085.56;5052624;28;20554;-65
2022/01/04 00:37:34;;;;;;;10.17;6.40;;;;;;;9.36;nan;-24078.50;5035027;28;20635;-65
2022/01/04 00:40:00;;;;;;;8.80;6.40;;;;;;;9.45;nan;-24080.91;5052680;28;20250;-65
2022/01/04 00:42:25;;;;;;;8.33;6.00;;;;;;;9.08;nan;-24070.59;5052570;28;20177;-66
2022/01/04 00:44:51;;;;;;;9.03;6.53;;;;;;;9.02;nan;-24068.91;5052687;28;20225;-66
2022/01/04 00:47:19;;;;;;;8.80;6.57;;;;;;;9.31;nan;-24077.09;5052698;28;20182;-66
2022/01/04 00:49:45;;;;;;;8.60;6.03;;;;;;;9.38;nan;-24079.06;5052082;28;20166;-66
2022/01/04 00:52:16;;;;;;;8.93;6.33;;;;;;;9.40;nan;-24079.63;5052686;28;20217;-66
2022/01/04 00:54:41;;;;;;;10.80;6.37;;;;;;;9.02;nan;-24069.03;5052752;28;20178;-66
2022/01/04 00:57:07;;;;;;;9.33;6.17;;;;;;;8.76;nan;-24061.81;5053802;28;20182;-66
2022/01/04 00:59:32;;;;;;;8.90;6.43;;;;;;;9.12;nan;-24071.72;5047143;28;20191;-66
2022/01/04 01:01:58;;;;;;;9.37;6.27;;;;;;;8.62;nan;-24057.72;5053575;28;20638;-66
2022/01/04 01:04:23;;;;;;;9.17;6.20;;;;;;;9.05;nan;-24069.88;5053458;28;20191;-66
2022/01/04 01:06:49;;;;;;;9.00;5.73;;;;;;;8.55;nan;-24055.88;5053438;28;20178;-66
2022/01/04 01:09:14;;;;;;;9.87;5.80;;;;;;;8.93;nan;-24066.34;5053480;28;20175;-66
2022/01/04 01:11:40;;;;;;;10.07;6.53;;;;;;;8.97;nan;-24067.63;5053287;28;20175;-67
2022/01/04 01:14:05;;;;;;;10.60;6.57;;;;;;;9.03;nan;-24069.19;5053313;28;20185;-66
2022/01/04 01:16:30;;;;;;;9.80;6.77;;;;;;;8.91;nan;-24065.94;5053266;28;20261;-66
2022/01/04 01:18:56;;;;;;;10.87;6.83;;;;;;;8.66;nan;-24059.00;5052959;28;20513;-66
2022/01/04 01:21:21;;;;;;;9.93;6.80;;;;;;;8.74;nan;-24061.13;5053181;28;20205;-66
2022/01/04 01:23:47;;;;;;;10.80;6.43;;;;;;;8.81;nan;-24063.09;5053228;28;20203;-66
2022/01/04 01:26:12;;;;;;;8.93;6.33;;;;;;;9.14;nan;-24072.28;5053312;28;20179;-66
2022/01/04 01:28:38;;;;;;;11.43;6.10;;;;;;;8.61;nan;-24057.56;5053262;28;20178;-66
2022/01/04 01:31:04;;;;;;;8.53;6.67;;;;;;;9.01;nan;-24068.75;5052963;28;20171;-66
2022/01/04 01:33:29;;;;;;;8.93;6.33;;;;;;;8.91;nan;-24065.94;5052584;28;20253;-66
2022/01/04 01:35:56;;;;;;;12.00;6.97;;;;;;;8.77;nan;-24061.97;5052874;28;20167;-65
2022/01/04 01:38:23;;;;;;;12.53;6.27;;;;;;;8.36;nan;-24050.66;5052880;28;20171;-66
2022/01/04 01:40:51;;;;;;;13.47;6.07;;;;;;;8.40;nan;-24051.78;5051769;28;20174;-66
2022/01/04 01:43:17;;;;;;;9.77;6.23;;;;;;;8.22;nan;-24046.69;5052970;28;20175;-66
2022/01/04 01:45:43;;;;;;;9.40;6.00;;;;;;;8.67;nan;-24059.28;5052501;28;20209;-66
2022/01/04 01:48:11;;;;;;;8.47;5.83;;;;;;;8.47;nan;-24053.63;5052385;28;20197;-69
2022/01/04 01:50:38;;;;;;;7.80;5.70;;;;;;;8.57;nan;-24056.31;5053076;28;20218;-68
2022/01/04 01:53:06;;;;;;;7.07;5.07;;;;;;;8.35;nan;-24050.38;5053249;28;20167;-69
2022/01/04 01:55:32;;;;;;;9.30;5.70;;;;;;;8.22;nan;-24046.53;5034556;28;20186;-66
2022/01/04 01:57:58;;;;;;;7.77;5.20;;;;;;;8.15;nan;-24044.56;5052498;28;20473;-66
2022/01/04 02:00:26;;;;;;;7.97;5.23;;;;;;;8.52;nan;-24055.03;5034298;28;20178;-65
2022/01/04 02:02:52;;;;;;;8.40;5.27;;;;;;;8.27;nan;-24047.94;5051625;28;20175;-65
2022/01/04 02:05:17;;;;;;;7.40;5.33;;;;;;;8.46;nan;-24053.34;5052048;28;20644;-65
2022/01/04 02:07:43;;;;;;;8.33;5.10;;;;;;;8.30;nan;-24048.94;5052122;28;20167;-65
2022/01/04 02:10:10;;;;;;;7.63;5.17;;;;;;;8.18;nan;-24045.41;5051987;28;20626;-65
2022/01/04 02:12:42;;;;;;;8.77;5.73;;;;;;;7.79;nan;-24034.50;5052006;28;20171;-65
2022/01/04 02:15:12;;;;;;;9.90;5.60;;;;;;;8.48;nan;-24053.91;5051633;28;20178;-65
2022/01/04 02:17:38;;;;;;;8.87;5.67;;;;;;;7.86;nan;-24036.47;5052133;28;20617;-65
2022/01/04 02:20:05;;;;;;;7.93;5.33;;;;;;;8.14;nan;-24044.28;5051889;28;20496;-65
2022/01/04 02:22:32;;;;;;;8.27;5.20;;;;;;;8.26;nan;-24047.66;5051752;28;20167;-65
2022/01/04 02:24:57;;;;;;;10.00;5.83;;;;;;;8.22;nan;-24046.53;5052051;28;20206;-65
2022/01/04 02:27:23;;;;;;;10.90;6.83;;;;;;;8.17;nan;-24045.25;5044997;28;20560;-65
2022/01/04 02:29:49;;;;;;;10.93;6.87;;;;;;;7.53;nan;-24027.28;5051985;28;20179;-65
2022/01/04 02:32:14;;;;;;;11.60;7.07;;;;;;;7.91;nan;-24037.88;5052067;28;20607;-65
2022/01/04 02:34:45;;;;;;;11.07;6.70;;;;;;;7.37;nan;-24022.72;5051817;28;20175;-65
2022/01/04 02:37:11;;;;;;;10.30;7.20;;;;;;;7.71;nan;-24032.38;5051794;28;20607;-65
2022/01/04 02:39:38;;;;;;;10.27;7.10;;;;;;;7.27;nan;-24019.91;5051721;28;20174;-65
2022/01/04 02:42:04;;;;;;;10.07;7.33;;;;;;;7.46;nan;-24025.28;5052337;28;20182;-65
2022/01/04 02:44:30;;;;;;;11.87;7.17;;;;;;;7.60;nan;-24029.25;5051002;28;20336;-65
2022/01/04 02:46:56;;;;;;;11.90;7.60;;;;;;;6.98;nan;-24011.94;5051287;28;20273;-66
2022/01/04 02:49:21;;;;;;;15.37;7.70;;;;;;;7.43;nan;-24024.44;5051162;28;20557;-65
2022/01/04 02:51:46;;;;;;;14.17;7.90;;;;;;;6.97;nan;-24011.53;5051143;28;20272;-65
2022/01/04 02:54:13;;;;;;;11.10;7.43;;;;;;;6.71;nan;-24004.16;5051174;28;20677;-65
2022/01/04 02:56:38;;;;;;;11.90;7.40;;;;;;;6.79;nan;-24006.56;5051500;28;20178;-65
2022/01/04 02:59:04;;;;;;;11.37;7.37;;;;;;;6.89;nan;-24009.41;5051416;28;20229;-65
2022/01/04 03:01:30;;;;;;;10.83;7.47;;;;;;;7.29;nan;-24020.47;5051349;28;20177;-65
2022/01/04 03:03:56;;;;;;;9.77;6.77;;;;;;;7.13;nan;-24015.94;5051195;28;20201;-66
2022/01/04 03:06:22;;;;;;;14.50;6.73;;;;;;;7.08;nan;-24014.66;5051527;28;20346;-66
2022/01/04 03:08:47;;;;;;;15.73;6.90;;;;;;;6.86;nan;-24008.56;5051320;28;20638;-66
2022/01/04 03:11:12;;;;;;;14.33;6.77;;;;;;;6.98;nan;-24011.81;5051305;28;20602;-66
2022/01/04 03:13:38;;;;;;;10.40;7.00;;;;;;;6.66;nan;-24002.88;5051060;28;20182;-66
2022/01/04 03:16:03;;;;;;;9.47;6.53;;;;;;;7.11;nan;-24015.50;5051454;28;20167;-66
2022/01/04 03:18:29;;;;;;;12.53;6.70;;;;;;;6.45;nan;-23997.06;5051420;28;20254;-66
2022/01/04 03:20:54;;;;;;;9.90;6.77;;;;;;;6.91;nan;-24009.97;5033551;28;20174;-65
2022/01/04 03:23:20;;;;;;;10.20;7.07;;;;;;;6.54;nan;-23999.47;5051550;28;20175;-65
2022/01/04 03:25:45;;;;;;;12.60;7.20;;;;;;;6.48;nan;-23997.91;5051296;28;20299;-65
2022/01/04 03:28:13;;;;;;;12.73;7.40;;;;;;;6.65;nan;-24002.59;5049648;28;20174;-65
2022/01/04 03:30:39;;;;;;;10.50;7.60;;;;;;;5.98;nan;-23983.84;5050735;28;20151;-65
2022/01/04 03:33:04;;;;;;;11.50;6.23;;;;;;;6.63;nan;-24002.03;5050874;28;20637;-65
2022/01/04 03:35:30;;;;;;;10.13;6.77;;;;;;;6.54;nan;-23999.47;5050784;28;20220;-65
2022/01/04 03:37:55;;;;;;;9.10;6.53;;;;;;;6.94;nan;-24010.81;5051080;28;20251;-65
2022/01/04 03:40:21;;;;;;;10.53;6.80;;;;;;;6.43;nan;-23996.34;5050996;28;20178;-65
2022/01/04 03:42:46;;;;;;;8.83;6.13;;;;;;;6.57;nan;-24000.31;5050482;28;20173;-64
2022/01/04 03:45:12;;;;;;;8.77;5.97;;;;;;;6.44;nan;-23996.63;5050646;28;20674;-65
2022/01/04 03:47:37;;;;;;;8.93;5.97;;;;;;;7.43;nan;-24024.44;5050759;28;20582;-66
2022/01/04 03:50:03;;;;;;;9.17;6.03;;;;;;;7.14;nan;-24016.22;5050763;28;20171;-65
2022/01/04 03:52:29;;;;;;;10.33;6.23;;;;;;;7.68;nan;-24031.53;5029303;28;20234;-65
2022/01/04 03:54:55;;;;;;;9.87;6.30;;;;;;;7.36;nan;-24022.44;5030398;28;20183;-66
2022/01/04 03:57:20;;;;;;;9.37;6.13;;;;;;;7.57;nan;-24028.41;5030239;28;20213;-65
2022/01/04 03:59:46;;;;;;;10.53;6.23;;;;;;;7.15;nan;-24016.50;5029693;28;20686;-65
2022/01/04 04:02:11;;;;;;;9.93;5.23;;;;;;;7.71;nan;-24032.38;5029599;28;20175;-65
2022/01/04 04:04:37;;;;;;;9.93;5.60;;;;;;;7.92;nan;-24038.31;5031592;28;20710;-65
2022/01/04 04:07:02;;;;;;;8.53;5.33;;;;;;;8.14;nan;-24044.41;5033040;28;20172;-66
2022/01/04 04:09:28;;;;;;;7.40;5.10;;;;;;;8.09;nan;-24043.00;5033456;28;20171;-65
2022/01/04 04:11:53;;;;;;;7.73;4.80;;;;;;;8.23;nan;-24046.81;5033145;28;20175;-65
2022/01/04 04:14:19;;;;;;;8.17;4.80;;;;;;;8.25;nan;-24047.38;5033557;28;20168;-66
2022/01/04 04:16:44;;;;;;;8.47;5.43;;;;;;;8.55;nan;-24055.75;5033118;28;20175;-66
2022/01/04 04:19:09;;;;;;;6.20;4.67;;;;;;;9.08;nan;-24070.72;5033906;28;20171;-66
2022/01/04 04:21:35;;;;;;;7.63;4.90;;;;;;;9.10;nan;-24071.16;5033715;28;20254;-66
2022/01/04 04:24:00;;;;;;;7.60;5.20;;;;;;;8.88;nan;-24064.94;5027743;28;20677;-66
2022/01/04 04:26:26;;;;;;;7.53;5.10;;;;;;;9.17;nan;-24073.28;5033819;28;20236;-66
2022/01/04 04:28:51;;;;;;;9.47;5.20;;;;;;;9.08;nan;-24070.59;5033405;28;20555;-66
2022/01/04 04:31:17;;;;;;;10.33;5.07;;;;;;;9.20;nan;-24074.00;5034250;28;20183;-66
2022/01/04 04:33:42;;;;;;;7.87;5.30;;;;;;;9.14;nan;-24072.44;5034421;28;20651;-66
2022/01/04 04:36:09;;;;;;;8.67;5.33;;;;;;;9.46;nan;-24081.34;5034299;28;20621;-66
2022/01/04 04:38:35;;;;;;;9.83;5.07;;;;;;;9.49;nan;-24082.03;5034284;28;20237;-66
2022/01/04 04:41:00;;;;;;;7.70;5.17;;;;;;;9.36;nan;-24078.38;5034096;28;20176;-66
2022/01/04 04:43:25;;;;;;;11.87;5.23;;;;;;;9.13;nan;-24072.16;5034166;28;20652;-66
2022/01/04 04:45:51;;;;;;;8.67;5.17;;;;;;;9.04;nan;-24069.59;5032494;28;20214;-65
2022/01/04 04:48:16;;;;;;;9.50;5.33;;;;;;;8.96;nan;-24067.19;5034099;28;20219;-65
2022/01/04 04:50:42;;;;;;;11.20;5.50;;;;;;;8.54;nan;-24055.47;5038475;28;20272;-67
2022/01/04 04:53:07;;;;;;;10.37;5.17;;;;;;;8.40;nan;-24051.78;5053794;28;20167;-66
2022/01/04 04:55:32;;;;;;;8.83;5.10;;;;;;;8.48;nan;-24053.75;5053650;28;20262;-65
2022/01/04 04:57:59;;;;;;;8.00;5.40;;;;;;;7.89;nan;-24037.31;5049937;28;20274;-66
2022/01/04 05:00:24;;;;;;;8.80;4.87;;;;;;;8.16;nan;-24044.84;5053746;28;20642;-67
2022/01/04 05:02:50;;;;;;;9.37;4.93;;;;;;;7.62;nan;-24029.81;5053629;28;20372;-65
2022/01/04 05:05:15;;;;;;;9.87;4.93;;;;;;;7.82;nan;-24035.34;5052886;28;20202;-66
2022/01/04 05:07:41;;;;;;;6.63;4.77;;;;;;;7.28;nan;-24020.19;5035235;28;20265;-67
2022/01/04 05:10:08;;;;;;;8.60;4.73;;;;;;;8.07;nan;-24042.28;5052650;28;20183;-66
2022/01/04 05:12:34;;;;;;;9.20;4.83;;;;;;;7.80;nan;-24034.78;5039419;28;21025;-66
2022/01/04 05:14:59;;;;;;;6.83;4.77;;;;;;;7.99;nan;-24040.31;5038802;28;20278;-66
2022/01/04 05:17:25;;;;;;;7.57;4.83;;;;;;;8.02;nan;-24040.88;5038242;28;20668;-66
2022/01/04 05:19:50;;;;;;;11.47;5.53;;;;;;;7.95;nan;-24039.16;5044314;28;20708;-65
2022/01/04 05:22:16;;;;;;;8.97;5.70;;;;;;;7.82;nan;-24035.47;5052383;28;20182;-67
2022/01/04 05:24:41;;;;;;;9.77;5.03;;;;;;;7.42;nan;-24024.16;5051977;28;20674;-66
2022/01/04 05:27:07;;;;;;;7.67;4.90;;;;;;;7.45;nan;-24025.00;5052601;28;20206;-67
2022/01/04 05:29:33;;;;;;;7.83;4.73;;;;;;;7.75;nan;-24033.38;5052193;28;20687;-67
2022/01/04 05:31:58;;;;;;;6.80;4.90;;;;;;;7.85;nan;-24036.19;5052368;28;20174;-66
2022/01/04 05:34:25;;;;;;;9.00;5.30;;;;;;;7.59;nan;-24028.97;5052012;28;20268;-65
2022/01/04 05:36:50;;;;;;;6.40;4.67;;;;;;;7.35;nan;-24022.16;5052900;28;20178;-65
2022/01/04 05:39:16;;;;;;;12.87;5.10;;;;;;;7.88;nan;-24037.03;5052053;28;20609;-67
2022/01/04 05:41:41;;;;;;;11.70;5.10;;;;;;;7.30;nan;-24020.75;5052424;28;20167;-68
2022/01/04 05:44:07;;;;;;;11.10;5.03;;;;;;;7.49;nan;-24026.13;5034695;28;20581;-66
2022/01/04 05:46:32;;;;;;;9.57;5.30;;;;;;;7.70;nan;-24032.09;5052205;28;20252;-67
2022/01/04 05:48:58;;;;;;;12.23;5.77;;;;;;;7.67;nan;-24031.25;5052077;28;20175;-67
2022/01/04 05:51:24;;;;;;;10.17;5.87;;;;;;;7.36;nan;-24022.44;5052249;28;20244;-66
2022/01/04 05:53:50;;;;;;;11.93;6.67;;;;;;;6.63;nan;-24002.03;5034303;28;20186;-68
2022/01/04 05:56:15;;;;;;;9.60;6.03;;;;;;;7.23;nan;-24018.75;5052198;28;20179;-68
2022/01/04 05:58:41;;;;;;;9.70;6.03;;;;;;;6.89;nan;-24009.41;5034728;28;20179;-68
2022/01/04 06:01:07;;;;;;;9.60;5.97;;;;;;;7.26;nan;-24019.63;5052067;28;20167;-68
2022/01/04 06:03:32;;;;;;;13.23;6.43;;;;;;;7.34;nan;-24021.88;5052353;28;20261;-68
2022/01/04 06:05:59;;;;;;;10.70;6.10;;;;;;;7.50;nan;-24026.56;5052075;28;20302;-68
2022/01/04 06:08:30;;;;;;;8.93;6.07;;;;;;;7.56;nan;-24028.13;5051945;28;20224;-68
2022/01/04 06:10:55;;;;;;;8.57;5.60;;;;;;;7.52;nan;-24026.97;5052398;28;20170;-67
2022/01/04 06:16:04;;;;;;;9.77;5.77;;;;;;;7.52;nan;-24026.97;5051543;28;20190;-68
2022/01/04 06:18:30;;;;;;;14.80;6.60;;;;;;;7.34;nan;-24022.03;5051580;28;20167;-67
2022/01/04 06:20:56;;;;;;;17.37;6.13;;;;;;;7.77;nan;-24033.94;5049833;28;20183;-71
2022/01/04 06:23:21;;;;;;;10.90;6.77;;;;;;;7.72;nan;-24032.66;5044992;28;20317;-67
2022/01/04 06:25:47;;;;;;;13.97;6.67;;;;;;;7.55;nan;-24027.84;5050748;28;20277;-68
2022/01/04 06:28:13;;;;;;;14.80;6.73;;;;;;;7.36;nan;-24022.44;5050879;28;20190;-70
2022/01/04 06:30:38;;;;;;;12.20;7.23;;;;;;;7.60;nan;-24029.09;5050913;28;20241;-69
2022/01/04 06:33:03;;;;;;;10.23;6.87;;;;;;;7.88;nan;-24037.19;5030507;28;20183;-68
2022/01/04 06:35:30;;;;;;;12.20;6.80;;;;;;;7.72;nan;-24032.66;5030631;28;20336;-69
2022/01/04 06:37:56;;;;;;;13.97;6.33;;;;;;;7.93;nan;-24038.47;5013577;28;20217;-68
2022/01/04 06:40:22;;;;;;;10.20;6.70;;;;;;;7.62;nan;-24029.81;5031257;28;20254;-68
2022/01/04 06:42:47;;;;;;;11.77;6.17;;;;;;;8.09;nan;-24043.00;5031300;28;20186;-69
2022/01/04 06:45:14;;;;;;;10.13;6.10;;;;;;;8.28;nan;-24048.22;5031003;28;20304;-69
2022/01/04 06:47:40;;;;;;;11.70;6.33;;;;;;;8.33;nan;-24049.78;5031331;28;20171;-70
2022/01/04 06:50:06;;;;;;;9.30;5.97;;;;;;;8.02;nan;-24040.88;5030841;28;20538;-67
2022/01/04 06:52:32;;;;;;;10.87;5.93;;;;;;;8.03;nan;-24041.16;5029551;28;20612;-69
2022/01/04 06:54:57;;;;;;;9.60;6.00;;;;;;;8.44;nan;-24052.78;5030802;28;20199;-69
2022/01/04 06:57:23;;;;;;;11.73;6.20;;;;;;;8.52;nan;-24055.03;5030794;28;20175;-69
2022/01/04 06:59:49;;;;;;;9.53;6.17;;;;;;;8.54;nan;-24055.59;5031201;28;20197;-69
2022/01/04 07:02:14;;;;;;;11.90;6.50;;;;;;;9.03;nan;-24069.31;5031043;28;20244;-69
2022/01/04 07:04:39;;;;;;;13.30;6.83;;;;;;;9.12;nan;-24071.72;5030850;28;20278;-69
2022/01/04 07:07:05;;;;;;;12.07;7.13;;;;;;;8.92;nan;-24066.22;5030530;28;20179;-68
2022/01/04 07:09:30;;;;;;;14.17;7.40;;;;;;;9.28;nan;-24076.25;5031702;28;20559;-68
2022/01/04 07:11:57;;;;;;;12.97;7.33;;;;;;;8.89;nan;-24065.34;5042892;28;20225;-68
2022/01/04 07:14:23;;;;;;;15.23;8.33;;;;;;;9.27;nan;-24075.97;5044518;28;20186;-68
2022/01/04 07:16:48;;;;;;;13.25;7.65;;;;;;;9.39;nan;-24079.34;5032193;28;20201;-68
2022/01/04 07:19:15;;;;;;;16.90;7.50;;;;;;;8.63;nan;-24058.16;5050017;28;20167;-68
2022/01/04 07:21:40;;;;;;;12.60;6.70;;;;;;;9.10;nan;-24071.16;5050503;28;20688;-68
2022/01/04 07:24:06;;;;;;;14.98;6.38;;;;;;;9.51;nan;-24082.59;5050350;28;20198;-67
2022/01/04 07:26:31;;;;;;;20.40;8.30;;;;;;;9.56;nan;-24084.16;5050696;28;20606;-69
2022/01/04 07:28:57;;;;;;;15.30;7.28;;;;;;;9.67;nan;-24087.13;5032815;28;20179;-69
2022/01/04 07:31:22;;;;;;;21.88;7.60;;;;;;;9.82;nan;-24091.38;5050853;28;20544;-67
2022/01/04 07:33:48;;;;;;;16.63;7.22;;;;;;;9.99;nan;-24096.03;5050426;28;20167;-68
2022/01/04 07:36:14;;;;;;;12.13;6.90;;;;;;;9.78;nan;-24090.25;5050648;28;20320;-69
2022/01/04 07:38:40;;;;;;;21.20;8.38;;;;;;;9.87;nan;-24092.78;5046262;28;20183;-69
2022/01/04 07:41:05;;;;;;;13.90;7.75;;;;;;;10.06;nan;-24098.00;5040190;28;20187;-69
2022/01/04 07:43:32;;;;;;;21.35;7.82;;;;;;;9.87;nan;-24092.78;5039800;28;20186;-68
2022/01/04 07:45:57;;;;;;;12.88;7.90;;;;;;;9.40;nan;-24079.63;5039399;28;20203;-68
2022/01/04 07:48:23;;;;;;;18.40;7.95;;;;;;;10.57;nan;-24112.41;5039872;28;20244;-69
2022/01/04 07:50:50;;;;;;;14.05;7.80;;;;;;;10.44;nan;-24108.75;5039693;28;20277;-69
2022/01/04 07:53:16;;;;;;;18.83;8.23;;;;;;;10.24;nan;-24103.09;5045768;28;20179;-69
2022/01/04 07:55:42;;;;;;;25.35;8.18;;;;;;;10.65;nan;-24114.53;5054197;28;20187;-69
2022/01/04 07:58:07;;;;;;;29.27;8.35;;;;;;;10.11;nan;-24099.41;5053736;28;20587;-68
2022/01/04 08:00:33;;;;;;;19.67;7.38;;;;;;;10.40;nan;-24107.63;5053961;28;20190;-68
2022/01/04 08:02:58;;;;;;;26.83;8.05;;;;;;;10.59;nan;-24112.97;5053780;28;20169;-68
2022/01/04 08:05:24;;;;;;;19.13;7.88;;;;;;;10.47;nan;-24109.59;5049478;28;20202;-69
2022/01/04 08:07:50;;;;;;;20.88;8.13;;;;;;;10.50;nan;-24110.44;5051431;28;20175;-68
2022/01/04 08:10:17;;;;;;;18.05;7.68;;;;;;;10.68;nan;-24115.22;5052979;28;20182;-68
2022/01/04 08:12:43;;;;;;;16.25;7.90;;;;;;;10.77;nan;-24117.78;5052492;28;20254;-68
2022/01/04 08:15:09;;;;;;;16.55;7.82;;;;;;;11.21;nan;-24130.03;5053551;28;20598;-68
2022/01/04 08:17:36;;;;;;;12.90;7.53;;;;;;;11.27;nan;-24131.72;5052640;28;20594;-68
2022/01/04 08:20:03;;;;;;;12.63;7.60;;;;;;;10.86;nan;-24120.31;5053214;28;20618;-68
2022/01/04 08:22:32;;;;;;;12.43;8.02;;;;;;;11.20;nan;-24129.88;5053120;28;20198;-68
2022/01/04 08:25:08;;;;;;;14.05;8.05;;;;;;;10.84;nan;-24119.88;5052978;28;20284;-68
2022/01/04 08:27:34;;;;;;;17.08;9.23;;;;;;;11.06;nan;-24125.94;5053553;28;20165;-69
2022/01/04 08:30:00;;;;;;;15.38;8.80;;;;;;;10.56;nan;-24111.97;5053390;28;20175;-69
2022/01/04 08:32:26;;;;;;;13.32;8.45;;;;;;;10.67;nan;-24114.94;5053330;28;20622;-68
2022/01/04 08:34:51;;;;;;;22.25;9.70;;;;;;;10.56;nan;-24112.13;5053608;28;20258;-68
2022/01/04 08:37:17;;;;;;;13.27;8.63;;;;;;;11.05;nan;-24125.66;5046728;28;20286;-69
2022/01/04 08:39:42;;;;;;;18.52;9.70;;;;;;;10.91;nan;-24121.84;5053244;28;20171;-69
2022/01/04 08:42:09;;;;;;;16.08;9.88;;;;;;;11.11;nan;-24127.34;5053867;28;20294;-69
2022/01/04 08:44:39;;;;;;;18.55;9.27;;;;;;;11.10;nan;-24126.94;5053209;28;20194;-70
2022/01/04 08:47:08;;;;;;;18.50;10.05;;;;;;;11.28;nan;-24132.16;5053201;28;20191;-69
2022/01/04 08:49:34;;;;;;;15.15;9.35;;;;;;;11.41;nan;-24135.66;5052757;28;20178;-69
2022/01/04 08:52:00;;;;;;;15.68;9.70;;;;;;;11.52;nan;-24138.91;5052895;28;20234;-69
2022/01/04 08:54:26;;;;;;;15.90;10.00;;;;;;;11.61;nan;-24141.31;5053224;28;20184;-69
2022/01/04 08:56:54;;;;;;;19.10;9.95;;;;;;;11.58;nan;-24140.47;5052490;28;20277;-69
2022/01/04 08:59:19;;;;;;;15.40;9.30;;;;;;;11.21;nan;-24130.03;5052280;28;20163;-68
2022/01/04 09:01:45;;;;;;;22.73;9.30;;;;;;;10.94;nan;-24122.56;5052533;28;20175;-68
2022/01/04 09:04:10;;;;;;;15.02;8.68;;;;;;;11.45;nan;-24136.81;5045750;28;20221;-68
2022/01/04 09:06:36;;;;;;;20.02;9.18;;;;;;;11.17;nan;-24129.03;5052282;28;20171;-69
2022/01/04 09:09:02;;;;;;;15.32;8.95;;;;;;;11.61;nan;-24141.31;5052310;28;20245;-69
2022/01/04 09:11:28;;;;;;;14.38;7.85;;;;;;;11.68;nan;-24143.13;5051886;28;20182;-69
2022/01/04 09:19:19;;;;;;;13.35;8.02;;;;;;;12.15;nan;-24156.25;5052287;28;20232;-69
2022/01/04 09:21:45;;;;;;;14.18;7.97;;;;;;;12.43;nan;-24164.13;5052796;28;20614;-68
2022/01/04 09:24:10;;;;;;;12.45;7.70;;;;;;;12.66;nan;-24170.59;5034018;28;20673;-68
2022/01/04 09:26:36;;;;;;;15.65;7.57;;;;;;;12.92;nan;-24177.75;5051932;28;20263;-68
2022/01/04 09:29:02;;;;;;;14.73;7.75;;;;;;;13.04;nan;-24181.00;5052266;28;20171;-68
2022/01/04 09:31:28;;;;;;;12.68;7.78;;;;;;;13.05;nan;-24181.28;5051959;28;20563;-69
2022/01/04 09:33:55;;;;;;;11.95;7.78;;;;;;;13.27;nan;-24187.59;5051915;28;20171;-69
2022/01/04 09:36:21;;;;;;;11.98;7.10;;;;;;;12.95;nan;-24178.59;5051962;28;20179;-69
2022/01/04 09:38:46;;;;;;;11.27;7.00;;;;;;;12.89;nan;-24176.91;5051802;28;20308;-69
2022/01/04 09:41:12;;;;;;;14.25;7.93;;;;;;;12.73;nan;-24172.41;5052094;28;20257;-69
2022/01/04 09:43:38;;;;;;;11.70;7.35;;;;;;;13.32;nan;-24188.88;5051749;28;20259;-69
2022/01/04 09:46:03;;;;;;;12.43;7.38;;;;;;;13.04;nan;-24181.13;5052320;28;20209;-69
2022/01/04 09:48:29;;;;;;;10.10;7.13;;;;;;;13.01;nan;-24180.28;5051854;28;20171;-69
2022/01/04 09:50:57;;;;;;;12.07;7.38;;;;;;;13.04;nan;-24181.13;5051778;28;20228;-69
2022/01/04 09:53:24;;;;;;;25.95;16.58;;;;;;;13.45;nan;-24192.38;5051594;28;20174;-68
2022/01/04 09:55:51;;;;;;;17.00;9.93;;;;;;;13.40;nan;-24191.13;5051501;28;20175;-68
2022/01/04 09:58:19;;;;;;;12.07;7.65;;;;;;;13.16;nan;-24184.50;5051171;28;20163;-69
2022/01/04 10:00:45;;;;;;;12.85;8.10;;;;;;;13.39;nan;-24190.69;5050780;28;20636;-67
2022/01/04 10:03:37;;;;;;;13.02;8.45;;;;;;;13.41;nan;-24191.25;5050667;28;20182;-68
2022/01/04 10:06:14;;;;;;;17.05;10.82;;;;;;;13.38;nan;-24190.56;5043921;28;20222;-68
2022/01/04 10:09:08;;;;;;;14.07;8.57;;;;;;;13.54;nan;-24194.91;5049436;28;20179;-68
2022/01/04 10:11:33;;;;;;;11.18;6.90;;;;;;;13.63;nan;-24197.44;5050841;28;20241;-68
2022/01/04 10:14:00;;;;;;;12.82;7.90;;;;;;;13.39;nan;-24190.69;5051060;28;20262;-68
2022/01/04 10:16:27;;;;;;;11.70;7.50;;;;;;;13.41;nan;-24191.38;5044094;28;20250;-69
2022/01/04 10:18:53;;;;;;;19.67;11.18;;;;;;;13.42;nan;-24191.53;5031200;28;20191;-70
2022/01/04 10:21:19;;;;;;;13.18;8.18;;;;;;;13.56;nan;-24195.59;5030636;28;20182;-69
2022/01/04 10:23:53;;;;;;;12.82;7.22;;;;;;;14.01;nan;-24208.09;5030837;28;20277;-69
2022/01/04 10:26:39;;;;;;;11.93;7.38;;;;;;;13.70;nan;-24199.41;5030699;28;20178;-70
2022/01/04 10:29:24;;;;;;;11.50;6.75;;;;;;;14.22;nan;-24213.84;5030770;28;20194;-68
2022/01/04 10:31:51;;;;;;;12.80;7.07;;;;;;;14.35;nan;-24217.34;5029819;28;20183;-69
2022/01/04 10:34:16;;;;;;;13.40;6.95;;;;;;;14.39;nan;-24218.47;5030356;28;20175;-67
2022/01/04 10:36:44;;;;;;;11.48;6.78;;;;;;;14.37;nan;-24217.94;5028796;28;20167;-70
2022/01/04 10:39:10;;;;;;;9.57;6.13;;;;;;;14.73;nan;-24227.88;5040339;28;20182;-70
2022/01/04 10:41:39;;;;;;;10.55;6.13;;;;;;;14.64;nan;-24225.50;5050086;28;20220;-68
2022/01/04 10:44:07;;;;;;;8.55;6.28;;;;;;;14.86;nan;-24231.66;5049821;28;20178;-70
2022/01/04 10:46:41;;;;;;;11.02;6.28;;;;;;;15.15;nan;-24239.50;5050064;28;20253;-68
2022/01/04 10:49:40;;;;;;;10.98;7.53;;;;;;;15.11;nan;-24238.38;5049835;28;20171;-70
2022/01/04 10:52:09;;;;;;;10.73;5.55;;;;;;;14.35;nan;-24217.34;5050044;28;20214;-69
2022/01/04 10:54:36;;;;;;;10.15;5.60;;;;;;;15.00;nan;-24235.59;5050069;28;20280;-71
2022/01/04 10:57:06;;;;;;;10.65;6.03;;;;;;;14.89;nan;-24232.50;5050329;28;20209;-71
2022/01/04 10:59:31;;;;;;;16.02;6.13;;;;;;;15.29;nan;-24243.44;5050035;28;20257;-68
2022/01/04 11:01:57;;;;;;;10.02;6.38;;;;;;;14.89;nan;-24232.38;5050479;28;20308;-68
2022/01/04 11:04:22;;;;;;;11.75;7.90;;;;;;;14.90;nan;-24232.78;5050066;28;20562;-70
2022/01/04 11:06:56;;;;;;;16.08;6.50;;;;;;;14.84;nan;-24231.09;5050623;28;20201;-69
2022/01/04 11:09:22;;;;;;;12.80;6.18;;;;;;;15.16;nan;-24239.78;5050501;28;20190;-69
2022/01/04 11:11:48;;;;;;;11.15;6.03;;;;;;;15.22;nan;-24241.59;5050132;28;20174;-69
2022/01/04 11:14:14;;;;;;;12.40;6.40;;;;;;;15.07;nan;-24237.28;5053689;28;20216;-69
2022/01/04 11:16:40;;;;;;;12.98;6.43;;;;;;;15.46;nan;-24248.34;5054749;28;20217;-70
2022/01/04 11:19:07;;;;;;;10.13;6.00;;;;;;;15.34;nan;-24244.84;5053861;28;20182;-70
2022/01/04 11:21:37;;;;;;;11.23;6.50;;;;;;;15.04;nan;-24236.56;5054558;28;20275;-70
2022/01/04 11:24:05;;;;;;;11.65;6.28;;;;;;;15.30;nan;-24243.72;5053534;28;20207;-69
2022/01/04 11:26:31;;;;;;;11.05;6.00;;;;;;;15.35;nan;-24245.25;5053742;28;20198;-69
2022/01/04 11:28:58;;;;;;;10.70;6.43;;;;;;;14.37;nan;-24217.94;5054117;28;20175;-70
2022/01/04 11:31:49;;;;;;;12.50;6.35;;;;;;;15.46;nan;-24248.19;5054298;28;20178;-72
2022/01/04 11:34:18;;;;;;;14.82;6.80;;;;;;;15.56;nan;-24251.00;5053896;28;20197;-69
2022/01/04 11:36:49;;;;;;;12.63;6.10;;;;;;;15.60;nan;-24251.97;5054018;28;20577;-69
2022/01/04 11:39:40;;;;;;;13.57;6.25;;;;;;;15.56;nan;-24250.84;5035730;28;20190;-63
2022/01/04 11:42:09;;;;;;;16.63;6.90;;;;;;;15.03;nan;-24236.44;5043047;28;20190;-63
2022/01/04 11:44:46;;;;;;;15.00;7.70;;;;;;;15.34;nan;-24244.97;5035537;28;20324;-62
2022/01/04 11:47:23;;;;;;;14.75;8.38;;;;;;;15.28;nan;-24243.16;5053517;28;20182;-62
2022/01/04 11:50:20;;;;;;;16.75;8.80;;;;;;;15.07;nan;-24237.28;5053298;28;20185;-62